Terminal Aerodrome Forecast
Issued by NWS

Home | Current Version | Previous Version | Text Only | Print | Product List | Glossary On
Versions: 1 2 3 4 5 6 7 8 9 10 11 12 13 14 15 16 17
000
FTUS46 KLOX 212300
TAFSBP
TAF
KSBP 212331Z 2200/2224 31012KT P6SM SKC
     FM220200 32007KT P6SM SKC
     FM220800 VRB03KT P6SM BKN007
     FM221100 VRB03KT 3SM BR OVC004
     FM221600 VRB03KT P6SM SKC
     FM221900 30010KT P6SM SKC=

USA.gov is the U.S. government's official web portal to all federal, state and local government web resources and services.